Photo de Laille
https://tgftp.nws.noaa.gov/data/observations/metar/stations/LFRN.TXT2020/10/23 22:00 LFRN 232200Z AUTO 19010KT 9999 BKN018 BKN023 BKN028 14/12 Q1014 TEMPO 4000 RA BKN007
Rennes
nuageux
Metar : 2020/10/23 22:00 LFRN 232200Z AUTO 19010KT 9999 BKN018 BKN023 BKN028 14/12 Q1014 TEMPO 4000 RA BKN007
Couverture nuageuse : Mostly Cloudy 1800 ft Mostly Cloudy 2300 ft Mostly Cloudy 2800 ft
Pression de 29.94 inHg (1014 hPa)
Humidité : 88%
Température : 57°F (14°C)
Vent de S at 12 mph (19 km/h)
Visibilité : 6 miles (10 km)
Nantes
couvert
Metar : 2020/10/23 22:00 LFRS 232200Z AUTO 20005KT 9999 FEW019 BKN031 OVC039 14/12 Q1017 TEMPO 4000 -RA BKN009 OVC018 BECMG 22015G25KT
Couverture nuageuse : Few Clouds 1900 ft Mostly Cloudy 3100 ft Overcast 3900 ft
Traduc : Partly cloudy 700 ft
Pression de 30.03 inHg (1017 hPa)
Humidité : 88%
Température : 57°F (14°C)
Point de rosée : 54°F (12°C)
Vent de SSW at 6 mph (9 km/h)
Visibilité : 6 miles (10 km)
Lannion
Ciel dégagé
Metar : 2020/10/23 22:00 LFRO 232200Z AUTO 22006KT CAVOK 10/10 Q1014
Couverture nuageuse :
Traduc : Partly cloudy 700 ft
Pression de 29.94 inHg (1014 hPa)
Humidité : 100%
Température : 50°F (10°C)
Point de rosée : 50°F (10°C)
Vent de SW at 7 mph (11 km/h)
Visibilité : greater than 7 miles (10 km)
Dinard
pluie légère, Brume, nuageux
Metar : 2020/10/23 22:00 LFRD 232200Z AUTO 26007KT 230V300 3200 -RA BR BKN004 BKN010 BKN024 13/13 Q1013 TEMPO BKN008 BECMG 9999 NSW
Couverture nuageuse : Mostly Cloudy 400 ft Mostly Cloudy 1000 ft Mostly Cloudy 2400 ft
Traduc : Partly cloudy 700 ft
Pression de 29.91 inHg (1013 hPa)
Humidité : 100%
Température : 55°F (13°C)
Point de rosée : 55°F (13°C)
Vent de W at 8 mph (13 km/h)
Visibilité : 2 miles (3 km)
Brest
nuageux
Metar : 2020/10/23 22:00 LFRB 232200Z AUTO 21011KT 9999 BKN009 12/11 Q1013 TEMPO 3000 BR
Couverture nuageuse : Mostly Cloudy 900 ft
Traduc : Partly cloudy 700 ft
Pression de 29.91 inHg (1013 hPa)
Humidité : 94%
Température : 54°F (12°C)
Point de rosée : 52°F (11°C)
Vent de SSW at 13 mph (20 km/h)
Visibilité : 6 miles (10 km)
Quimper

Metar : 2020/10/23 22:00 LFRQ 232200Z AUTO 21003KT 180V240 1000 0900 R28/1400N BCFG VV/// 11/11 Q1014
Couverture nuageuse :
Traduc : Partly cloudy 700 ft
Pression de
Humidité :
Température :
Point de rosée :
Vent de SSW at 3 mph (6 km/h)
Visibilité : 1 mile (1 km)
St Nazaire
pluie légère, couvert
Metar : 2020/10/23 22:00 LFRZ 232200Z AUTO 22014KT 9999 -RA BKN016 OVC024 15/14 Q1016 TEMPO 4000 -RA BKN014 BECMG 22015G25KT
Couverture nuageuse : Mostly Cloudy 1600 ft Overcast 2400 ft
Traduc : Partly cloudy 700 ft
Pression de 30 inHg (1016 hPa)
Humidité : 94%
Température : 59°F (15°C)
Point de rosée : 57°F (14°C)
Vent de SW at 16 mph (26 km/h)
Visibilité : 6 miles (10 km)
St Brieuc
nuageux
Metar : 2020/10/23 21:00 LFRT 232100Z AUTO 24004KT 210V270 9999 FEW013 SCT021 BKN027 12/11 Q1013
Couverture nuageuse : Few Clouds 1300 ft Partly Cloudy 2100 ft Mostly Cloudy 2700 ft
Traduc : Partly cloudy 700 ft
Pression de 29.91 inHg (1013 hPa)
Humidité : 94%
Température : 54°F (12°C)
Point de rosée : 52°F (11°C)
Vent de WSW at 5 mph (7 km/h)
Visibilité : 6 miles (10 km)
Lorient
nuageux
Metar : 2020/10/23 22:00 LFRH 232200Z AUTO 24006KT 9999 FEW007 BKN041 BKN056 12/12 Q1014 NOSIG
Couverture nuageuse : Few Clouds 700 ft Mostly Cloudy 4100 ft Mostly Cloudy 5600 ft
Traduc : Partly cloudy 700 ft
Pression de 29.94 inHg (1014 hPa)
Humidité : 100%
Température : 54°F (12°C)
Point de rosée : 54°F (12°C)
Vent de WSW at 7 mph (11 km/h)
Visibilité : 6 miles (10 km)
Vannes-Meucon
Légère bruine, couvert
Metar : 2020/10/23 22:00 LFRV 232200Z AUTO 21011KT 170V240 7000 -DZ OVC007 14/14 Q1014
Couverture nuageuse : Overcast 700 ft
Traduc : Partly cloudy 700 ft
Pression de 29.94 inHg (1014 hPa)
Humidité : 100%
Température : 57°F (14°C)
Point de rosée : 57°F (14°C)
Vent de SSW at 13 mph (20 km/h)
Visibilité : 4 miles (7 km)

 


   Weather Underground PWS IBRETAGN39      Weather Underground PWS IBRETAGN39Retour Météo-Laillé adhérent de Météo-Bretagne et d'Infoclimat. Données mises à jour en temps réel via Météolink Climatologie réalisée sous Wswin et GraphWeather.

Affichage prévisions météo de WeatherUnderground via script PHP de Saratoga.

Copyright 2012-2018